Colby, Kansas
Current Conditions -  °F | °C
As of 4:35 PM on Sunday 23 Nov 2014 (Local Time) from KCBK Reporting Station
Clear Clear  
Wind Chill: 37°   Ceiling: Unl
Heat Index: 46°   Visibility: 10mi
Dew Point: 18°   Wind: 29mph
Humidity: 32%   Direction: 330°NNW
Pressure: 29.7"   Gusts: 35mph
Location:  39.4°N, 101.04°W
Report Text: KCBK 232235Z AUTO 33025G30KT 10SM CLR 08/M08 A2970 RMK AO2
Loading
Personal Weather Stations






























Interactive Weather Map New forecast layout! Learn more

10-Day Weather Forecast

Advertisements
Track Severe Weather on mobile